createdAt,value
2023-04-19T00:00:09.635Z,10.90
2023-04-19T00:02:38.021Z,11.30
2023-04-19T00:05:06.402Z,12.00
2023-04-19T00:07:33.680Z,13.40
2023-04-19T00:10:00.634Z,10.43
2023-04-19T00:12:27.529Z,11.47
2023-04-19T00:14:54.268Z,14.50
2023-04-19T00:17:21.321Z,13.23
2023-04-19T00:19:49.520Z,12.63
2023-04-19T00:22:17.878Z,13.20
2023-04-19T00:24:44.655Z,11.47
2023-04-19T00:27:11.466Z,12.20
2023-04-19T00:29:39.205Z,11.23
2023-04-19T00:32:06.196Z,12.37
2023-04-19T00:34:33.922Z,13.07
2023-04-19T00:37:01.292Z,11.30
2023-04-19T00:39:28.327Z,14.03
2023-04-19T00:41:57.418Z,13.40
2023-04-19T00:44:24.533Z,15.57
2023-04-19T00:46:52.548Z,12.90
2023-04-19T00:49:21.020Z,13.03
2023-04-19T00:51:50.857Z,14.70
2023-04-19T00:54:19.683Z,14.73
2023-04-19T00:56:49.781Z,13.23
2023-04-19T00:59:18.464Z,13.53
2023-04-19T01:01:45.375Z,14.90
2023-04-19T01:04:12.412Z,12.97
2023-04-19T01:06:40.691Z,14.60
2023-04-19T01:09:10.819Z,17.33
2023-04-19T01:11:42.541Z,14.33
2023-04-19T01:14:10.033Z,15.80
2023-04-19T01:16:36.874Z,16.17
2023-04-19T01:19:04.807Z,17.33
2023-04-19T01:21:32.564Z,14.63
2023-04-19T01:23:59.491Z,14.13
2023-04-19T01:26:26.779Z,15.00
2023-04-19T01:28:54.428Z,16.27
2023-04-19T01:31:21.510Z,13.27
2023-04-19T01:33:48.892Z,15.10
2023-04-19T01:36:15.843Z,14.33
2023-04-19T01:38:42.677Z,16.63
2023-04-19T01:41:10.024Z,16.83
2023-04-19T01:43:36.752Z,16.80
2023-04-19T01:46:03.789Z,18.63
2023-04-19T01:48:30.985Z,15.10
2023-04-19T01:50:57.813Z,14.90
2023-04-19T01:53:24.483Z,15.80
2023-04-19T01:55:51.607Z,13.37
2023-04-19T01:58:20.411Z,13.60
2023-04-19T02:00:47.298Z,16.97
2023-04-19T02:03:14.464Z,15.57
2023-04-19T02:05:42.593Z,15.90
2023-04-19T02:08:09.342Z,17.73
2023-04-19T02:10:36.053Z,15.70
2023-04-19T02:13:02.829Z,14.67
2023-04-19T02:15:29.649Z,17.47
2023-04-19T02:17:56.371Z,18.97
2023-04-19T02:20:24.579Z,18.70
2023-04-19T02:22:51.736Z,16.80
2023-04-19T02:25:19.512Z,19.13
2023-04-19T02:27:46.345Z,19.70
2023-04-19T02:30:13.364Z,18.13
2023-04-19T02:32:40.266Z,18.47
2023-04-19T02:35:07.379Z,17.50
2023-04-19T02:37:34.336Z,18.27
2023-04-19T02:40:01.200Z,16.50
2023-04-19T02:42:29.287Z,16.67
2023-04-19T02:44:56.175Z,17.83
2023-04-19T02:47:24.346Z,18.07
2023-04-19T02:49:51.173Z,17.47
2023-04-19T02:52:19.351Z,18.93
2023-04-19T02:54:46.035Z,18.67
2023-04-19T02:57:12.831Z,21.73
2023-04-19T02:59:41.458Z,18.80
2023-04-19T03:02:08.241Z,20.30
2023-04-19T03:04:36.611Z,21.73
2023-04-19T03:07:03.774Z,21.43
2023-04-19T03:09:31.088Z,21.77
2023-04-19T03:11:58.080Z,24.67
2023-04-19T03:14:24.910Z,19.00
2023-04-19T03:16:52.438Z,21.43
2023-04-19T03:19:19.544Z,19.97
2023-04-19T03:21:51.078Z,21.10
2023-04-19T03:24:20.833Z,19.20
2023-04-19T03:26:51.159Z,22.20
2023-04-19T03:29:23.121Z,20.30
2023-04-19T03:32:09.267Z,19.20
2023-04-19T03:34:36.554Z,24.83
2023-04-19T03:37:03.521Z,21.87
2023-04-19T03:39:32.135Z,22.23
2023-04-19T03:42:03.055Z,23.13
2023-04-19T03:44:50.110Z,21.03
2023-04-19T03:47:18.533Z,19.80
2023-04-19T03:49:48.834Z,19.93
2023-04-19T03:52:17.123Z,17.97
2023-04-19T03:54:46.788Z,16.23
2023-04-19T03:57:30.146Z,19.47
2023-04-19T03:59:58.877Z,17.37
2023-04-19T04:02:25.751Z,19.77
2023-04-19T04:04:56.293Z,17.53
2023-04-19T04:07:24.742Z,18.60
2023-04-19T04:09:51.950Z,19.00
2023-04-19T04:12:18.836Z,20.13
2023-04-19T04:14:46.188Z,20.43
2023-04-19T04:17:13.776Z,20.80
2023-04-19T04:19:40.935Z,22.07
2023-04-19T04:22:08.092Z,20.93
2023-04-19T04:24:44.222Z,22.67
2023-04-19T04:27:34.036Z,20.47
2023-04-19T04:30:01.997Z,22.90
2023-04-19T04:32:35.840Z,25.03
2023-04-19T04:35:04.107Z,23.57
2023-04-19T04:37:45.228Z,23.47
2023-04-19T04:40:12.155Z,22.40
2023-04-19T04:42:39.082Z,22.50
2023-04-19T04:45:07.339Z,22.17
2023-04-19T04:47:37.074Z,21.63
2023-04-19T04:50:07.495Z,23.47
2023-04-19T04:52:34.375Z,25.50
2023-04-19T04:55:09.662Z,24.43
2023-04-19T04:57:41.448Z,25.40
2023-04-19T05:00:13.300Z,27.23
2023-04-19T05:02:49.765Z,23.30
2023-04-19T05:05:17.100Z,28.07
2023-04-19T05:07:43.738Z,24.67
2023-04-19T05:10:10.768Z,22.27
2023-04-19T05:12:44.650Z,24.13
2023-04-19T05:15:12.126Z,25.37
2023-04-19T05:17:43.540Z,24.20
2023-04-19T05:20:10.956Z,20.53
2023-04-19T05:22:38.668Z,22.13
2023-04-19T05:25:10.757Z,19.83
2023-04-19T05:27:38.585Z,21.87
2023-04-19T05:30:07.780Z,20.13
2023-04-19T05:32:39.262Z,20.13
2023-04-19T05:35:09.246Z,18.60
2023-04-19T05:37:37.345Z,20.97
2023-04-19T05:40:10.212Z,19.23
2023-04-19T05:42:38.765Z,19.93
2023-04-19T05:45:07.539Z,21.70
2023-04-19T05:47:34.574Z,22.07
2023-04-19T05:50:24.388Z,22.50
2023-04-19T05:53:14.082Z,22.97
2023-04-19T05:55:41.232Z,21.40
2023-04-19T05:58:08.180Z,22.83
2023-04-19T06:00:35.155Z,21.53
2023-04-19T06:03:09.371Z,22.37
2023-04-19T06:05:36.473Z,26.60
2023-04-19T06:08:03.639Z,21.87
2023-04-19T06:10:40.275Z,24.57
2023-04-19T06:13:16.214Z,23.93
2023-04-19T06:15:43.094Z,26.67
2023-04-19T06:18:11.156Z,28.53
2023-04-19T06:20:47.301Z,27.97
2023-04-19T06:23:14.965Z,31.43
2023-04-19T06:25:41.995Z,34.97
2023-04-19T06:28:09.149Z,33.67
2023-04-19T06:30:35.921Z,36.67
2023-04-19T06:33:03.292Z,38.97
2023-04-19T06:35:30.171Z,39.63
2023-04-19T06:37:56.846Z,37.17
2023-04-19T06:40:23.578Z,38.17
2023-04-19T06:42:50.400Z,46.93
2023-04-19T06:45:17.491Z,42.13
2023-04-19T06:47:44.467Z,39.83
2023-04-19T06:50:11.658Z,41.77
2023-04-19T06:52:39.324Z,46.13
2023-04-19T06:55:07.853Z,47.00
2023-04-19T06:57:34.931Z,49.13
2023-04-19T07:00:04.546Z,49.87
2023-04-19T07:02:31.873Z,49.93
2023-04-19T07:04:58.777Z,50.10
2023-04-19T07:07:25.489Z,48.53
2023-04-19T07:09:52.402Z,48.77
2023-04-19T07:12:19.172Z,48.97
2023-04-19T07:14:45.923Z,51.50
2023-04-19T07:17:13.923Z,53.30
2023-04-19T07:19:40.785Z,49.83
2023-04-19T07:22:08.520Z,53.00
2023-04-19T07:24:35.644Z,51.03
2023-04-19T07:27:02.661Z,47.13
2023-04-19T07:29:29.792Z,49.50
2023-04-19T07:31:56.623Z,52.50
2023-04-19T07:34:23.915Z,52.70
2023-04-19T07:36:50.889Z,51.13
2023-04-19T07:39:18.177Z,50.97
2023-04-19T07:41:46.420Z,54.00
2023-04-19T07:44:13.674Z,52.37
2023-04-19T07:46:44.679Z,47.73
2023-04-19T07:49:11.515Z,47.13
2023-04-19T07:51:39.027Z,49.57
2023-04-19T07:54:06.085Z,47.70
2023-04-19T07:56:33.765Z,42.13
2023-04-19T07:59:07.411Z,42.83
2023-04-19T08:01:35.726Z,44.83
2023-04-19T08:04:03.158Z,36.97
2023-04-19T08:06:30.910Z,42.13
2023-04-19T08:08:57.700Z,40.30
2023-04-19T08:11:25.428Z,37.50
2023-04-19T08:14:04.758Z,40.47
2023-04-19T08:19:09.566Z,44.13
2023-04-19T08:21:41.082Z,36.70
2023-04-19T08:24:09.381Z,38.60
2023-04-19T08:26:36.537Z,38.40
2023-04-19T08:29:03.693Z,33.13
2023-04-19T08:31:30.566Z,43.13
2023-04-19T08:33:58.552Z,37.60
2023-04-19T08:36:37.003Z,42.37
2023-04-19T08:39:12.249Z,40.60
2023-04-19T08:41:48.081Z,43.57
2023-04-19T08:44:32.521Z,40.43
2023-04-19T08:47:02.910Z,38.33
2023-04-19T08:49:30.293Z,37.07
2023-04-19T08:52:01.362Z,37.03
2023-04-19T08:54:29.971Z,33.70
2023-04-19T08:57:00.677Z,36.30
2023-04-19T08:59:28.829Z,37.80
2023-04-19T09:01:56.705Z,34.40
2023-04-19T09:04:36.296Z,32.83
2023-04-19T09:07:04.150Z,36.33
2023-04-19T09:09:37.096Z,32.63
2023-04-19T09:12:18.487Z,30.00
2023-04-19T09:15:01.258Z,31.90
2023-04-19T09:17:29.770Z,30.53
2023-04-19T09:19:57.287Z,28.47
2023-04-19T09:22:25.434Z,32.43
2023-04-19T09:27:33.522Z,31.73
2023-04-19T09:30:02.862Z,29.27
2023-04-19T09:32:45.012Z,32.30
2023-04-19T09:35:12.013Z,31.30
2023-04-19T09:38:04.048Z,26.30
2023-04-19T09:40:28.575Z,26.00
2023-04-19T09:43:08.924Z,24.53
2023-04-19T09:45:44.192Z,24.27
2023-04-19T09:48:12.713Z,25.13
2023-04-19T09:51:04.994Z,25.63
2023-04-19T09:53:35.083Z,22.80
2023-04-19T09:56:03.967Z,22.73
2023-04-19T09:58:46.101Z,23.77
2023-04-19T10:01:17.461Z,20.83
2023-04-19T10:03:50.369Z,24.87
2023-04-19T10:08:50.833Z,22.30
2023-04-19T10:11:21.867Z,21.63
2023-04-19T10:13:54.208Z,24.60
2023-04-19T10:16:21.089Z,26.03
2023-04-19T10:18:50.435Z,30.00
2023-04-19T10:21:19.405Z,29.80
2023-04-19T10:23:47.373Z,35.50
2023-04-19T10:26:14.311Z,32.10
2023-04-19T10:28:42.410Z,28.20
2023-04-19T10:31:13.364Z,29.50
2023-04-19T10:33:41.964Z,26.52
2023-04-19T10:36:10.880Z,26.73
2023-04-19T10:38:38.189Z,25.60
2023-04-19T10:41:14.421Z,28.88
2023-04-19T10:44:08.410Z,26.88
2023-04-19T10:46:36.316Z,27.88
2023-04-19T10:49:05.537Z,23.48
2023-04-19T10:51:39.464Z,25.85
2023-04-19T10:54:31.978Z,26.58
2023-04-19T10:57:02.258Z,21.35
2023-04-19T10:59:37.020Z,24.27
2023-04-19T11:02:06.369Z,23.17
2023-04-19T11:04:33.263Z,25.35
2023-04-19T11:07:01.853Z,24.90
2023-04-19T11:09:34.655Z,28.08
2023-04-19T11:12:09.708Z,26.20
2023-04-19T11:14:52.130Z,24.50
2023-04-19T11:17:28.015Z,24.98
2023-04-19T11:19:56.382Z,27.05
2023-04-19T11:22:44.722Z,23.60
2023-04-19T11:25:14.207Z,21.13
2023-04-19T11:27:43.098Z,23.48
2023-04-19T11:30:14.916Z,23.17
2023-04-19T11:32:46.898Z,22.25
2023-04-19T11:35:14.269Z,21.65
2023-04-19T11:37:41.480Z,21.83
2023-04-19T11:40:10.122Z,23.27
2023-04-19T11:42:37.002Z,21.95
2023-04-19T11:45:03.985Z,21.42
2023-04-19T11:47:32.337Z,23.02
2023-04-19T11:50:31.012Z,20.83
2023-04-19T11:52:59.196Z,23.45
2023-04-19T11:55:26.715Z,20.60
2023-04-19T11:57:53.612Z,21.77
2023-04-19T12:00:28.946Z,24.10
2023-04-19T12:02:56.901Z,26.92
2023-04-19T12:05:24.513Z,22.70
2023-04-19T12:08:05.006Z,20.20
2023-04-19T12:10:32.992Z,23.17
2023-04-19T12:12:59.965Z,20.07
2023-04-19T12:15:43.459Z,20.57
2023-04-19T12:18:10.673Z,24.27
2023-04-19T12:20:43.920Z,20.67
2023-04-19T12:23:16.905Z,26.67
2023-04-19T12:25:46.457Z,23.87
2023-04-19T12:28:14.635Z,27.67
2023-04-19T12:30:42.530Z,26.70
2023-04-19T12:33:10.792Z,31.20
2023-04-19T12:35:38.658Z,32.70
2023-04-19T12:38:05.753Z,30.10
2023-04-19T12:40:32.695Z,27.70
2023-04-19T12:42:59.460Z,28.23
2023-04-19T12:45:27.460Z,34.60
2023-04-19T12:47:54.392Z,29.43
2023-04-19T12:50:21.819Z,34.70
2023-04-19T12:52:48.679Z,32.50
2023-04-19T12:55:15.613Z,28.83
2023-04-19T12:57:42.578Z,28.07
2023-04-19T13:00:11.109Z,27.97
2023-04-19T13:02:38.465Z,27.73
2023-04-19T13:05:06.618Z,24.63
2023-04-19T13:07:33.496Z,15.20
2023-04-19T13:10:00.353Z,15.93
2023-04-19T13:12:28.720Z,12.87
2023-04-19T13:14:56.223Z,13.13
2023-04-19T13:17:23.007Z,13.50
2023-04-19T13:19:49.942Z,10.57
2023-04-19T13:22:16.779Z,12.97
2023-04-19T13:24:44.024Z,14.23
2023-04-19T13:27:11.346Z,13.17
2023-04-19T13:29:38.195Z,12.97
2023-04-19T13:32:07.831Z,12.37
2023-04-19T13:34:35.109Z,10.83
2023-04-19T13:37:01.778Z,11.47
2023-04-19T13:39:29.066Z,10.10
2023-04-19T13:41:56.295Z,11.03
2023-04-19T13:44:25.335Z,12.97
2023-04-19T13:46:52.363Z,15.27
2023-04-19T13:49:19.291Z,12.00
2023-04-19T13:51:50.049Z,13.67
2023-04-19T13:54:18.556Z,9.37
2023-04-19T13:56:45.916Z,10.93
2023-04-19T13:59:13.301Z,9.67
2023-04-19T14:01:41.709Z,10.40
2023-04-19T14:04:08.529Z,8.87
2023-04-19T14:06:35.481Z,8.57
2023-04-19T14:09:02.213Z,10.03
2023-04-19T14:11:29.529Z,8.43
2023-04-19T14:13:56.705Z,7.93
2023-04-19T14:16:25.539Z,8.63
2023-04-19T14:18:52.915Z,8.83
2023-04-19T14:21:19.859Z,12.63
2023-04-19T14:23:46.682Z,8.07
2023-04-19T14:26:14.950Z,9.83
2023-04-19T14:28:41.864Z,9.53
2023-04-19T14:31:08.635Z,7.23
2023-04-19T14:33:35.337Z,7.23
2023-04-19T14:36:02.166Z,6.73
2023-04-19T14:38:29.011Z,6.67
2023-04-19T14:40:57.004Z,4.37
2023-04-19T14:43:23.741Z,5.50
2023-04-19T14:45:51.774Z,4.90
2023-04-19T14:48:21.466Z,6.13
2023-04-19T14:50:49.254Z,5.30
2023-04-19T14:53:16.258Z,3.10
2023-04-19T14:55:43.800Z,2.87
2023-04-19T14:58:10.766Z,4.07
2023-04-19T15:00:37.571Z,2.97
2023-04-19T15:03:05.098Z,2.63
2023-04-19T15:05:35.642Z,3.17
2023-04-19T15:08:02.632Z,2.20
2023-04-19T15:10:29.883Z,2.57
2023-04-19T15:12:57.259Z,2.97
2023-04-19T15:15:23.969Z,2.77
2023-04-19T15:17:51.178Z,1.73
2023-04-19T15:20:18.048Z,2.00
2023-04-19T15:22:45.084Z,3.40
2023-04-19T15:25:12.567Z,2.80
2023-04-19T15:27:39.346Z,2.73
2023-04-19T15:30:07.013Z,4.20
2023-04-19T15:32:36.794Z,2.67
2023-04-19T15:35:03.999Z,4.83
2023-04-19T15:37:30.764Z,4.07
2023-04-19T15:39:57.692Z,3.37
2023-04-19T15:42:24.399Z,2.83
2023-04-19T15:44:51.252Z,3.67
2023-04-19T15:47:18.043Z,3.80
2023-04-19T15:49:47.362Z,3.13
2023-04-19T15:52:14.226Z,3.77
2023-04-19T15:54:41.107Z,4.27
2023-04-19T15:57:08.230Z,3.27
2023-04-19T15:59:34.948Z,4.23
2023-04-19T16:02:01.815Z,4.83
2023-04-19T16:04:29.507Z,4.43
2023-04-19T16:06:56.560Z,5.60
2023-04-19T16:09:23.699Z,4.30
2023-04-19T16:11:50.564Z,3.87
2023-04-19T16:14:17.590Z,3.87
2023-04-19T16:16:44.494Z,6.90
2023-04-19T16:19:11.655Z,3.53
2023-04-19T16:21:38.665Z,5.73
2023-04-19T16:24:06.022Z,4.17
2023-04-19T16:26:34.111Z,7.17
2023-04-19T16:29:01.365Z,7.70
2023-04-19T16:31:29.196Z,5.37
2023-04-19T16:33:56.370Z,3.50
2023-04-19T16:36:23.631Z,3.60
2023-04-19T16:38:50.358Z,3.63
2023-04-19T16:41:17.137Z,3.07
2023-04-19T16:43:44.950Z,2.10
2023-04-19T16:46:11.931Z,1.63
2023-04-19T16:48:39.050Z,1.53
2023-04-19T16:51:06.015Z,1.50
2023-04-19T16:53:32.802Z,1.50
2023-04-19T16:56:00.414Z,2.40
2023-04-19T16:58:27.199Z,2.50
2023-04-19T17:00:54.272Z,2.00
2023-04-19T17:03:21.973Z,2.13
2023-04-19T17:05:48.842Z,2.37
2023-04-19T17:08:15.998Z,2.33
2023-04-19T17:10:42.703Z,3.13
2023-04-19T17:13:10.503Z,2.70
2023-04-19T17:15:38.505Z,4.30
2023-04-19T17:18:05.725Z,5.43
2023-04-19T17:20:32.695Z,4.87
2023-04-19T17:23:00.429Z,4.47
2023-04-19T17:25:27.441Z,5.70
2023-04-19T17:27:54.996Z,5.27
2023-04-19T17:30:21.825Z,6.00
2023-04-19T17:32:48.742Z,6.60
2023-04-19T17:35:15.993Z,5.83
2023-04-19T17:37:44.000Z,6.73
2023-04-19T17:40:11.481Z,6.30
2023-04-19T17:42:38.263Z,5.47
2023-04-19T17:45:10.790Z,8.60
2023-04-19T17:47:40.876Z,6.63
2023-04-19T17:50:10.456Z,8.40
2023-04-19T17:52:37.754Z,6.73
2023-04-19T17:55:05.111Z,9.60
2023-04-19T17:57:33.836Z,9.73
2023-04-19T18:00:06.496Z,8.50
2023-04-19T18:02:36.019Z,9.30
2023-04-19T18:05:03.148Z,10.40
2023-04-19T18:07:30.990Z,6.43
2023-04-19T18:09:57.983Z,6.63
2023-04-19T18:12:24.983Z,7.33
2023-04-19T18:14:51.797Z,6.13
2023-04-19T18:17:18.699Z,7.00
2023-04-19T18:19:46.471Z,5.40
2023-04-19T18:22:13.308Z,6.43
2023-04-19T18:24:46.161Z,9.33
2023-04-19T18:27:13.456Z,6.33
2023-04-19T18:29:40.834Z,6.40
2023-04-19T18:32:07.684Z,7.40
2023-04-19T18:34:34.697Z,6.67
2023-04-19T18:37:05.013Z,18.30
2023-04-19T18:39:32.132Z,21.50
2023-04-19T18:41:58.926Z,67.30
2023-04-19T18:44:49.458Z,7.83
2023-04-19T18:47:13.535Z,5.17
2023-04-19T18:49:40.731Z,6.57
2023-04-19T18:52:07.497Z,7.40
2023-04-19T18:54:34.339Z,8.10
2023-04-19T18:59:31.745Z,27.23
2023-04-19T19:01:58.885Z,8.47
2023-04-19T19:04:46.798Z,4.53
2023-04-19T19:07:27.810Z,7.10
2023-04-19T19:10:03.949Z,5.50
2023-04-19T19:12:42.858Z,3.87
2023-04-19T19:15:10.449Z,4.10
2023-04-19T19:17:38.149Z,6.73
2023-04-19T19:20:06.782Z,6.83
2023-04-19T19:22:34.107Z,4.90
2023-04-19T19:25:01.937Z,8.93
2023-04-19T19:27:29.269Z,4.13
2023-04-19T19:29:58.949Z,19.20
2023-04-19T19:32:26.200Z,10.60
2023-04-19T19:35:00.450Z,9.00
2023-04-19T19:37:29.476Z,14.73
2023-04-19T19:39:57.305Z,12.10
2023-04-19T19:42:25.153Z,7.23
2023-04-19T19:44:55.737Z,4.57
2023-04-19T19:47:24.070Z,8.47
2023-04-19T19:50:34.855Z,4.80
2023-04-19T19:52:37.988Z,4.47
2023-04-19T19:55:05.165Z,3.97
2023-04-19T19:58:18.638Z,3.93
2023-04-19T20:00:42.074Z,3.97
2023-04-19T20:03:06.637Z,3.53
2023-04-19T20:05:34.173Z,5.00
2023-04-19T20:08:10.369Z,4.00
2023-04-19T20:10:42.456Z,3.40
2023-04-19T20:13:09.493Z,3.57
2023-04-19T20:15:37.676Z,4.77
2023-04-19T20:18:05.560Z,3.60
2023-04-19T20:20:32.471Z,3.57
2023-04-19T20:22:59.552Z,4.27
2023-04-19T20:25:26.831Z,4.07
2023-04-19T20:27:54.300Z,7.17
2023-04-19T20:30:21.215Z,4.93
2023-04-19T20:32:50.262Z,4.67
2023-04-19T20:35:17.574Z,3.63
2023-04-19T20:37:47.793Z,4.73
2023-04-19T20:40:16.133Z,4.17
2023-04-19T20:42:43.609Z,4.53
2023-04-19T20:45:11.097Z,4.30
2023-04-19T20:47:38.445Z,4.67
2023-04-19T20:50:07.657Z,4.10
2023-04-19T20:52:35.211Z,3.93
2023-04-19T20:55:02.705Z,4.80
2023-04-19T20:57:29.542Z,5.93
2023-04-19T20:59:57.062Z,5.70
2023-04-19T21:02:23.886Z,5.40
2023-04-19T21:04:50.849Z,5.40
2023-04-19T21:07:17.907Z,4.93
2023-04-19T21:09:44.620Z,6.10
2023-04-19T21:12:11.881Z,8.50
2023-04-19T21:14:38.731Z,5.53
2023-04-19T21:17:06.056Z,4.47
2023-04-19T21:19:33.044Z,5.30
2023-04-19T21:21:59.818Z,5.57
2023-04-19T21:24:26.682Z,5.07
2023-04-19T21:26:53.465Z,5.33
2023-04-19T21:29:20.989Z,7.03
2023-04-19T21:31:48.182Z,8.67
2023-04-19T21:34:15.174Z,5.63
2023-04-19T21:36:42.256Z,5.07
2023-04-19T21:39:10.216Z,6.43
2023-04-19T21:41:37.679Z,7.47
2023-04-19T21:44:05.068Z,9.17
2023-04-19T21:46:32.574Z,4.93
2023-04-19T21:48:59.362Z,5.80
2023-04-19T21:51:26.309Z,5.70
2023-04-19T21:53:53.143Z,5.73
2023-04-19T21:56:19.894Z,6.70
2023-04-19T21:58:47.720Z,7.60
2023-04-19T22:01:14.583Z,5.20
2023-04-19T22:03:41.736Z,5.83
2023-04-19T22:06:08.594Z,7.30
2023-04-19T22:08:35.427Z,7.33
2023-04-19T22:11:02.904Z,7.40
2023-04-19T22:13:30.771Z,7.77
2023-04-19T22:15:57.696Z,6.73
2023-04-19T22:18:24.475Z,6.87
2023-04-19T22:20:52.124Z,8.67
2023-04-19T22:23:19.162Z,6.67
2023-04-19T22:25:46.169Z,7.97
2023-04-19T22:28:13.161Z,9.20
2023-04-19T22:30:39.866Z,7.67
2023-04-19T22:33:06.691Z,6.57
2023-04-19T22:35:33.830Z,9.53
2023-04-19T22:38:01.026Z,7.67
2023-04-19T22:40:28.164Z,6.93
2023-04-19T22:42:54.865Z,7.67
2023-04-19T22:45:21.533Z,6.93
2023-04-19T22:47:48.928Z,6.77
2023-04-19T22:50:16.142Z,8.33
2023-04-19T22:52:44.597Z,8.83
2023-04-19T22:55:11.577Z,9.93
2023-04-19T22:57:38.784Z,7.43
2023-04-19T23:00:07.068Z,8.60
2023-04-19T23:02:34.220Z,8.23
2023-04-19T23:05:01.305Z,11.70
2023-04-19T23:07:28.933Z,7.77
2023-04-19T23:09:56.251Z,8.60
2023-04-19T23:12:24.120Z,10.03
2023-04-19T23:14:51.009Z,8.73
2023-04-19T23:17:18.867Z,11.07
2023-04-19T23:19:45.590Z,8.70
2023-04-19T23:22:12.490Z,8.83
2023-04-19T23:24:40.296Z,8.77
2023-04-19T23:27:07.041Z,13.00
2023-04-19T23:29:34.212Z,9.97
2023-04-19T23:32:01.957Z,9.97
2023-04-19T23:34:29.200Z,10.93
2023-04-19T23:36:56.800Z,12.03
2023-04-19T23:39:23.950Z,11.53
2023-04-19T23:41:50.711Z,10.93
2023-04-19T23:44:17.939Z,13.97
2023-04-19T23:46:44.838Z,12.17
2023-04-19T23:49:12.226Z,11.77
2023-04-19T23:51:39.082Z,12.50
2023-04-19T23:54:06.160Z,12.17
2023-04-19T23:56:33.063Z,13.73
2023-04-19T23:58:59.843Z,11.57
